Time;durP1;ratioP1;P1;durP2;ratioP2;P2;SDS_P1;SDS_P2;PMS_P1;PMS_P2;Temp;Humidity;BMP_temperature;BMP_pressure;BME280_temperature;BME280_humidity;BME280_pressure;Samples;Min_cycle;Max_cycle;Signal;HPM_P1;HPM_P2
2022/03/23 00:01:53;;;;;;;47.70;24.38;;;;;;;;;;5072309;28;20408;-63
2022/03/23 00:04:19;;;;;;;39.42;21.05;;;;;;;;;;5072507;28;20512;-62
2022/03/23 00:06:46;;;;;;;42.88;22.67;;;;;;;;;;5072508;28;20021;-63
2022/03/23 00:09:14;;;;;;;40.22;22.00;;;;;;;;;;5072489;28;20021;-63
2022/03/23 00:11:40;;;;;;;38.17;21.48;;;;;;;;;;5072488;28;20032;-62
2022/03/23 00:14:09;;;;;;;44.58;23.10;;;;;;;;;;5054504;28;20085;-63
2022/03/23 00:16:36;;;;;;;49.05;24.42;;;;;;;;;;5072154;28;20413;-63
2022/03/23 00:19:03;;;;;;;43.03;23.30;;;;;;;;;;5054393;28;20112;-63
2022/03/23 00:21:29;;;;;;;43.72;22.63;;;;;;;;;;5072458;28;20026;-63
2022/03/23 00:23:55;;;;;;;40.90;22.45;;;;;;;;;;5072078;28;20036;-62
2022/03/23 00:26:21;;;;;;;47.50;21.73;;;;;;;;;;5072336;28;20031;-63
2022/03/23 00:28:48;;;;;;;45.53;24.17;;;;;;;;;;5072335;28;20053;-63
2022/03/23 00:31:15;;;;;;;43.17;22.95;;;;;;;;;;5073792;28;20064;-64
2022/03/23 00:33:41;;;;;;;44.22;22.77;;;;;;;;;;5075908;28;20027;-65
2022/03/23 00:36:09;;;;;;;47.10;23.83;;;;;;;;;;5076085;28;20024;-62
2022/03/23 00:38:35;;;;;;;43.92;23.23;;;;;;;;;;5075732;28;20078;-62
2022/03/23 00:41:03;;;;;;;42.17;23.33;;;;;;;;;;5075818;28;20032;-63
2022/03/23 00:43:29;;;;;;;46.15;23.65;;;;;;;;;;5075260;28;20094;-62
2022/03/23 00:45:55;;;;;;;48.28;24.30;;;;;;;;;;5075671;28;20032;-62
2022/03/23 00:48:22;;;;;;;48.28;23.60;;;;;;;;;;5075620;28;20024;-63
2022/03/23 00:50:48;;;;;;;49.08;24.52;;;;;;;;;;5075567;28;20016;-63
2022/03/23 00:53:15;;;;;;;40.78;23.73;;;;;;;;;;5075274;28;20029;-63
2022/03/23 00:55:41;;;;;;;42.25;22.17;;;;;;;;;;5057502;28;20054;-63
2022/03/23 00:58:08;;;;;;;46.70;23.65;;;;;;;;;;5075443;28;20032;-63
2022/03/23 01:00:34;;;;;;;45.97;23.08;;;;;;;;;;5075398;28;20025;-63
2022/03/23 01:03:00;;;;;;;37.63;22.45;;;;;;;;;;5057395;28;20424;-64
2022/03/23 01:05:27;;;;;;;43.03;22.38;;;;;;;;;;5075241;28;20029;-63
2022/03/23 01:07:54;;;;;;;42.38;22.20;;;;;;;;;;5075252;28;20166;-63
2022/03/23 01:10:21;;;;;;;45.75;24.30;;;;;;;;;;5075225;28;20024;-63
2022/03/23 01:12:48;;;;;;;45.85;24.27;;;;;;;;;;5075126;28;20113;-63
2022/03/23 01:15:19;;;;;;;48.88;23.55;;;;;;;;;;5057187;28;20038;-62
2022/03/23 01:17:45;;;;;;;42.85;23.98;;;;;;;;;;5075098;28;20024;-61
2022/03/23 01:20:13;;;;;;;47.60;24.00;;;;;;;;;;5057088;28;20028;-62
2022/03/23 01:22:40;;;;;;;47.15;24.13;;;;;;;;;;5074958;28;20033;-63
2022/03/23 01:25:10;;;;;;;46.97;24.50;;;;;;;;;;5074926;28;20489;-63
2022/03/23 01:27:40;;;;;;;43.80;22.65;;;;;;;;;;5056859;28;20509;-65
2022/03/23 01:30:08;;;;;;;47.70;23.55;;;;;;;;;;5056825;28;20366;-65
2022/03/23 01:32:35;;;;;;;43.55;24.90;;;;;;;;;;5074814;28;20369;-63
2022/03/23 01:35:02;;;;;;;40.97;23.15;;;;;;;;;;5074814;28;20469;-66
2022/03/23 01:37:28;;;;;;;50.50;24.33;;;;;;;;;;5056701;28;20025;-64
2022/03/23 01:39:54;;;;;;;44.03;23.30;;;;;;;;;;5074903;28;20040;-64
2022/03/23 01:42:20;;;;;;;48.88;25.00;;;;;;;;;;5073672;28;20035;-63
2022/03/23 01:44:47;;;;;;;46.55;24.27;;;;;;;;;;5056489;28;20494;-65
2022/03/23 01:47:14;;;;;;;50.25;26.00;;;;;;;;;;5056533;28;20032;-63
2022/03/23 01:49:41;;;;;;;49.75;27.40;;;;;;;;;;5074724;28;20021;-62
2022/03/23 01:52:09;;;;;;;54.67;28.10;;;;;;;;;;5074346;28;20029;-63
2022/03/23 01:54:36;;;;;;;50.63;26.42;;;;;;;;;;5074400;28;20035;-65
2022/03/23 01:57:04;;;;;;;52.05;26.63;;;;;;;;;;5056276;28;20024;-64
2022/03/23 01:59:30;;;;;;;50.13;25.98;;;;;;;;;;5074270;28;20020;-65
2022/03/23 02:01:56;;;;;;;47.45;25.25;;;;;;;;;;5074226;28;20060;-64
2022/03/23 02:04:23;;;;;;;46.08;25.55;;;;;;;;;;5074141;28;20115;-65
2022/03/23 02:06:49;;;;;;;51.80;26.27;;;;;;;;;;5074208;28;20067;-65
2022/03/23 02:09:16;;;;;;;47.60;24.50;;;;;;;;;;5074356;28;20082;-65
2022/03/23 02:11:42;;;;;;;46.10;24.15;;;;;;;;;;5056059;28;20036;-65
2022/03/23 02:14:11;;;;;;;46.90;24.77;;;;;;;;;;5073976;28;20166;-65
2022/03/23 02:16:41;;;;;;;49.65;25.92;;;;;;;;;;5055910;28;20056;-65
2022/03/23 02:19:07;;;;;;;47.90;25.63;;;;;;;;;;5073579;28;20388;-65
2022/03/23 02:21:34;;;;;;;45.92;24.50;;;;;;;;;;5073820;28;20024;-65
2022/03/23 02:24:00;;;;;;;50.58;25.33;;;;;;;;;;5073711;28;20037;-65
2022/03/23 02:26:28;;;;;;;51.13;26.42;;;;;;;;;;5055467;28;20029;-63
2022/03/23 02:28:55;;;;;;;51.03;26.63;;;;;;;;;;5073364;28;20035;-65
2022/03/23 02:31:21;;;;;;;60.20;29.60;;;;;;;;;;5073610;28;20055;-66
2022/03/23 02:33:48;;;;;;;49.90;27.05;;;;;;;;;;5055387;28;20124;-63
2022/03/23 02:36:14;;;;;;;56.28;28.63;;;;;;;;;;5073500;28;20025;-63
2022/03/23 02:38:40;;;;;;;50.25;26.48;;;;;;;;;;5073510;28;20029;-65
2022/03/23 02:41:06;;;;;;;55.88;26.27;;;;;;;;;;5073478;28;20449;-63
2022/03/23 02:43:33;;;;;;;50.28;26.20;;;;;;;;;;5072926;28;20534;-63
2022/03/23 02:45:59;;;;;;;48.22;24.58;;;;;;;;;;5073384;28;20032;-65
2022/03/23 02:48:25;;;;;;;46.88;23.83;;;;;;;;;;5073342;28;20032;-63
2022/03/23 02:50:51;;;;;;;48.95;25.05;;;;;;;;;;5073353;28;20030;-65
2022/03/23 03:01:53;;;;;;;51.33;25.60;;;;;;;;;;5073047;28;20508;-65
2022/03/23 03:04:23;;;;;;;50.95;26.23;;;;;;;;;;5055055;28;20533;-65
2022/03/23 03:06:49;;;;;;;48.55;26.10;;;;;;;;;;5055135;28;20034;-64
2022/03/23 03:09:16;;;;;;;47.70;25.13;;;;;;;;;;5055081;28;20081;-64
2022/03/23 03:11:43;;;;;;;43.08;25.02;;;;;;;;;;5073102;28;20024;-65
2022/03/23 03:14:10;;;;;;;49.78;27.17;;;;;;;;;;5073103;28;20103;-64
2022/03/23 03:16:36;;;;;;;51.08;25.95;;;;;;;;;;5073004;28;20103;-65
2022/03/23 03:19:05;;;;;;;49.50;25.98;;;;;;;;;;5055259;28;20355;-65
2022/03/23 03:21:32;;;;;;;48.08;24.63;;;;;;;;;;5073009;28;20069;-65
2022/03/23 03:23:58;;;;;;;55.80;26.27;;;;;;;;;;5072646;28;20489;-65
2022/03/23 03:26:25;;;;;;;60.05;25.15;;;;;;;;;;5054954;28;20495;-65
2022/03/23 03:28:51;;;;;;;45.70;24.85;;;;;;;;;;5072953;28;20067;-65
2022/03/23 03:31:17;;;;;;;51.97;24.73;;;;;;;;;;5072859;28;20033;-65
2022/03/23 03:33:44;;;;;;;52.20;25.55;;;;;;;;;;5054959;28;20036;-65
2022/03/23 03:36:11;;;;;;;52.80;27.92;;;;;;;;;;5072868;28;20067;-66
2022/03/23 03:38:38;;;;;;;57.40;27.17;;;;;;;;;;5072827;28;20060;-66
2022/03/23 03:41:05;;;;;;;49.47;26.13;;;;;;;;;;5072853;28;20058;-65
2022/03/23 03:43:31;;;;;;;57.10;28.10;;;;;;;;;;5072350;28;20072;-67
2022/03/23 03:45:58;;;;;;;82.53;30.05;;;;;;;;;;5072986;28;20036;-66
2022/03/23 03:48:24;;;;;;;57.90;27.80;;;;;;;;;;5072474;28;20037;-66
2022/03/23 03:50:51;;;;;;;60.58;29.08;;;;;;;;;;5054675;28;20063;-67
2022/03/23 03:53:17;;;;;;;60.90;30.10;;;;;;;;;;5054664;28;20025;-67
2022/03/23 03:55:44;;;;;;;69.82;33.40;;;;;;;;;;5072714;28;20115;-67
2022/03/23 03:58:12;;;;;;;87.72;39.55;;;;;;;;;;5072689;28;20063;-67
2022/03/23 04:00:38;;;;;;;66.82;31.90;;;;;;;;;;5054554;28;20051;-67
2022/03/23 04:03:05;;;;;;;66.90;30.80;;;;;;;;;;5072252;28;20393;-67
2022/03/23 04:05:33;;;;;;;83.50;34.90;;;;;;;;;;5072975;28;20035;-65
2022/03/23 04:07:59;;;;;;;71.47;31.60;;;;;;;;;;5058384;28;20083;-65
2022/03/23 04:10:26;;;;;;;61.63;28.42;;;;;;;;;;5076074;28;20119;-64
2022/03/23 04:12:53;;;;;;;61.63;31.10;;;;;;;;;;5058299;28;20423;-64
2022/03/23 04:15:20;;;;;;;75.50;32.70;;;;;;;;;;5075965;28;20397;-65
2022/03/23 04:17:46;;;;;;;61.53;32.10;;;;;;;;;;5058257;28;20032;-66
2022/03/23 04:20:13;;;;;;;74.63;35.15;;;;;;;;;;5076176;28;20024;-65
2022/03/23 04:22:39;;;;;;;72.07;33.75;;;;;;;;;;5076107;28;20104;-64
2022/03/23 04:25:09;;;;;;;75.75;35.92;;;;;;;;;;5076029;28;20514;-64
2022/03/23 04:27:44;;;;;;;75.47;34.90;;;;;;;;;;5076015;28;20509;-64
2022/03/23 04:30:12;;;;;;;72.63;32.78;;;;;;;;;;5076274;28;20074;-66
2022/03/23 04:32:38;;;;;;;88.63;36.03;;;;;;;;;;5057902;28;20457;-66
2022/03/23 04:35:05;;;;;;;77.60;35.28;;;;;;;;;;5076142;28;20038;-66
2022/03/23 04:37:31;;;;;;;76.25;34.47;;;;;;;;;;5075830;28;20162;-65
2022/03/23 04:39:57;;;;;;;70.22;35.45;;;;;;;;;;5075835;28;20884;-66
2022/03/23 04:42:24;;;;;;;80.78;38.25;;;;;;;;;;5075805;28;20023;-65
2022/03/23 04:44:50;;;;;;;84.97;39.05;;;;;;;;;;5075631;28;20145;-65
2022/03/23 04:47:16;;;;;;;80.07;37.35;;;;;;;;;;5075635;28;20035;-66
2022/03/23 04:49:42;;;;;;;86.18;40.90;;;;;;;;;;5075627;28;20052;-64
2022/03/23 04:52:08;;;;;;;85.78;37.28;;;;;;;;;;5075549;28;20492;-65
2022/03/23 04:54:35;;;;;;;89.75;39.50;;;;;;;;;;5057528;28;20021;-65
2022/03/23 04:57:01;;;;;;;82.22;37.70;;;;;;;;;;5075762;28;20024;-65
2022/03/23 04:59:27;;;;;;;78.97;39.72;;;;;;;;;;5074028;28;20037;-65
2022/03/23 05:01:53;;;;;;;85.97;39.40;;;;;;;;;;5074147;28;20016;-64
2022/03/23 05:04:20;;;;;;;92.03;44.17;;;;;;;;;;5055735;28;20037;-65
2022/03/23 05:06:46;;;;;;;114.38;56.38;;;;;;;;;;5074108;28;20029;-65
2022/03/23 05:09:12;;;;;;;111.35;61.85;;;;;;;;;;5055932;28;20020;-64
2022/03/23 05:11:38;;;;;;;164.70;100.18;;;;;;;;;;5057251;28;20103;-64
2022/03/23 05:14:04;;;;;;;172.80;98.93;;;;;;;;;;5075186;28;20478;-65
2022/03/23 05:16:31;;;;;;;118.88;61.47;;;;;;;;;;5075421;28;20029;-65
2022/03/23 05:18:57;;;;;;;110.88;57.25;;;;;;;;;;5075113;28;20029;-65
2022/03/23 05:21:23;;;;;;;112.40;55.63;;;;;;;;;;5075338;28;20379;-65
2022/03/23 05:23:49;;;;;;;120.97;53.40;;;;;;;;;;5056947;28;20129;-64
2022/03/23 05:26:16;;;;;;;116.20;56.70;;;;;;;;;;5075320;28;20107;-65
2022/03/23 05:28:42;;;;;;;114.63;52.05;;;;;;;;;;5075206;28;20047;-65
2022/03/23 05:31:09;;;;;;;108.20;50.40;;;;;;;;;;5074897;28;20032;-65
2022/03/23 05:33:36;;;;;;;103.35;50.10;;;;;;;;;;5074666;28;20119;-65
2022/03/23 05:36:02;;;;;;;111.72;49.58;;;;;;;;;;5074823;28;20033;-65
2022/03/23 05:38:28;;;;;;;107.32;50.20;;;;;;;;;;5074672;28;20029;-65
2022/03/23 05:40:54;;;;;;;107.20;49.20;;;;;;;;;;5074698;28;20024;-65
2022/03/23 05:43:21;;;;;;;104.90;49.58;;;;;;;;;;5074605;28;20047;-65
2022/03/23 05:45:47;;;;;;;143.43;53.95;;;;;;;;;;5056560;28;20044;-66
2022/03/23 05:48:13;;;;;;;109.90;51.83;;;;;;;;;;5073785;28;20043;-66
2022/03/23 05:50:39;;;;;;;112.07;52.05;;;;;;;;;;5073779;28;20027;-66
2022/03/23 05:53:07;;;;;;;120.22;50.03;;;;;;;;;;5056480;28;20365;-64
2022/03/23 05:55:33;;;;;;;111.65;51.50;;;;;;;;;;5074362;28;20111;-63
2022/03/23 05:57:59;;;;;;;123.63;55.53;;;;;;;;;;5056299;28;20035;-64
2022/03/23 06:00:25;;;;;;;116.03;49.92;;;;;;;;;;5074080;28;20372;-64
2022/03/23 06:02:52;;;;;;;126.55;55.80;;;;;;;;;;5074034;28;20032;-63
2022/03/23 06:05:18;;;;;;;120.22;55.28;;;;;;;;;;5074070;28;20029;-64
2022/03/23 06:07:44;;;;;;;123.63;54.25;;;;;;;;;;5074089;28;20039;-64
2022/03/23 06:10:10;;;;;;;122.53;55.63;;;;;;;;;;5074053;28;20032;-64
2022/03/23 06:12:37;;;;;;;113.40;52.83;;;;;;;;;;5073925;28;20032;-66
2022/03/23 06:15:05;;;;;;;117.25;55.55;;;;;;;;;;5073898;28;20020;-65
2022/03/23 06:17:32;;;;;;;125.50;54.78;;;;;;;;;;5074197;28;20417;-65
2022/03/23 06:19:58;;;;;;;76.20;36.92;;;;;;;;;;5055770;28;20028;-65
2022/03/23 06:22:25;;;;;;;78.90;37.65;;;;;;;;;;5073552;28;20032;-65
2022/03/23 06:24:52;;;;;;;64.63;28.98;;;;;;;;;;5070414;28;20057;-65
2022/03/23 06:27:18;;;;;;;65.35;32.65;;;;;;;;;;5055299;28;20127;-65
2022/03/23 06:29:44;;;;;;;58.58;30.73;;;;;;;;;;5054027;28;20025;-66
2022/03/23 06:32:10;;;;;;;63.17;31.15;;;;;;;;;;5072846;28;20116;-63
2022/03/23 06:34:36;;;;;;;61.65;30.85;;;;;;;;;;5055413;28;20397;-66
2022/03/23 06:37:03;;;;;;;76.70;37.67;;;;;;;;;;5072935;28;20388;-65
2022/03/23 06:39:32;;;;;;;80.43;39.28;;;;;;;;;;5072924;28;20025;-63
2022/03/23 06:41:59;;;;;;;73.63;35.97;;;;;;;;;;5073330;28;20112;-63
2022/03/23 06:44:25;;;;;;;78.68;38.65;;;;;;;;;;5054572;28;20404;-62
2022/03/23 06:46:51;;;;;;;72.43;36.20;;;;;;;;;;5073092;28;20103;-65
2022/03/23 06:49:17;;;;;;;64.35;31.35;;;;;;;;;;5072905;28;20028;-62
2022/03/23 06:51:44;;;;;;;63.35;30.45;;;;;;;;;;5072621;28;20396;-62
2022/03/23 06:54:10;;;;;;;56.35;27.73;;;;;;;;;;5072878;28;20032;-63
2022/03/23 06:56:36;;;;;;;52.95;25.48;;;;;;;;;;5054909;28;20031;-63
2022/03/23 06:59:04;;;;;;;50.05;27.13;;;;;;;;;;5073108;28;20032;-64
2022/03/23 07:01:30;;;;;;;45.17;22.95;;;;;;;;;;5054387;28;20024;-63
2022/03/23 07:03:56;;;;;;;50.88;24.45;;;;;;;;;;5073107;28;20024;-63
2022/03/23 07:06:22;;;;;;;37.63;22.17;;;;;;;;;;5073196;28;20033;-63
2022/03/23 07:11:33;;;;;;;37.70;20.38;;;;;;;;;;5072841;28;20166;-63
2022/03/23 07:14:00;;;;;;;29.85;18.90;;;;;;;;;;5072501;28;20031;-62
2022/03/23 07:16:28;;;;;;;32.78;19.08;;;;;;;;;;5072561;28;20031;-62
2022/03/23 07:18:54;;;;;;;34.85;18.88;;;;;;;;;;5072612;28;20103;-63
2022/03/23 07:21:20;;;;;;;38.50;19.90;;;;;;;;;;5054545;28;20379;-62
2022/03/23 07:23:46;;;;;;;35.10;20.00;;;;;;;;;;5072823;28;20472;-63
2022/03/23 07:26:16;;;;;;;40.80;19.60;;;;;;;;;;5072435;28;20020;-64
2022/03/23 07:28:42;;;;;;;31.95;17.67;;;;;;;;;;5054583;28;20400;-64
2022/03/23 07:31:08;;;;;;;30.95;17.50;;;;;;;;;;5054899;28;20107;-63
2022/03/23 07:33:35;;;;;;;27.30;16.75;;;;;;;;;;5054916;28;20170;-64
2022/03/23 07:36:02;;;;;;;29.73;17.25;;;;;;;;;;5073152;28;20107;-64
2022/03/23 07:38:28;;;;;;;32.45;17.67;;;;;;;;;;5072951;28;20027;-64
2022/03/23 07:40:55;;;;;;;28.23;16.05;;;;;;;;;;5073782;28;20013;-65
2022/03/23 07:43:21;;;;;;;27.25;16.23;;;;;;;;;;5076770;28;20052;-64
2022/03/23 07:45:47;;;;;;;23.02;14.40;;;;;;;;;;5076786;28;20051;-64
2022/03/23 07:48:16;;;;;;;29.50;15.93;;;;;;;;;;5076969;28;20028;-64
2022/03/23 07:50:42;;;;;;;35.55;15.75;;;;;;;;;;5076812;28;20017;-64
2022/03/23 07:53:08;;;;;;;29.98;16.33;;;;;;;;;;5076806;28;20027;-64
2022/03/23 07:55:34;;;;;;;26.27;14.75;;;;;;;;;;5076810;28;20047;-64
2022/03/23 07:58:01;;;;;;;34.90;15.82;;;;;;;;;;5076252;28;20046;-64
2022/03/23 08:00:27;;;;;;;27.23;16.08;;;;;;;;;;5076798;28;20085;-63
2022/03/23 08:02:53;;;;;;;28.95;16.42;;;;;;;;;;5076511;28;20028;-63
2022/03/23 08:05:19;;;;;;;25.08;15.52;;;;;;;;;;5073627;28;20480;-63
2022/03/23 08:07:45;;;;;;;30.50;16.33;;;;;;;;;;5076045;28;20078;-63
2022/03/23 08:10:12;;;;;;;29.02;17.17;;;;;;;;;;5076021;28;20033;-64
2022/03/23 08:12:38;;;;;;;31.10;17.25;;;;;;;;;;5076130;28;20464;-63
2022/03/23 08:15:05;;;;;;;29.50;17.05;;;;;;;;;;5058016;28;20491;-65
2022/03/23 08:17:31;;;;;;;32.20;18.38;;;;;;;;;;5076056;28;20025;-64
2022/03/23 08:22:42;;;;;;;30.98;18.90;;;;;;;;;;5075741;28;20050;-63
2022/03/23 08:25:08;;;;;;;28.95;17.90;;;;;;;;;;5075553;28;20071;-64
2022/03/23 08:27:34;;;;;;;31.75;19.10;;;;;;;;;;5075737;28;20028;-63
2022/03/23 08:30:01;;;;;;;32.35;18.73;;;;;;;;;;5075356;28;20042;-63
2022/03/23 08:32:27;;;;;;;29.38;18.63;;;;;;;;;;5075660;28;20028;-63
2022/03/23 08:34:53;;;;;;;33.33;17.88;;;;;;;;;;5073787;28;20107;-65
2022/03/23 08:37:19;;;;;;;37.50;18.67;;;;;;;;;;5075526;28;20034;-68
2022/03/23 08:39:45;;;;;;;32.95;17.50;;;;;;;;;;5075294;28;20043;-66
2022/03/23 08:42:11;;;;;;;27.10;17.38;;;;;;;;;;5075282;28;20438;-64
2022/03/23 08:44:40;;;;;;;26.77;17.08;;;;;;;;;;5055915;28;20052;-65
2022/03/23 08:47:06;;;;;;;27.52;17.55;;;;;;;;;;5074441;28;20024;-65
2022/03/23 08:49:32;;;;;;;28.70;15.82;;;;;;;;;;5074417;28;20035;-65
2022/03/23 08:51:58;;;;;;;28.38;17.20;;;14.00;53.40;;;;;;5073953;28;20028;-63
2022/03/23 08:54:24;;;;;;;35.20;18.15;;;14.20;56.50;;;;;;5073889;28;20103;-63
2022/03/23 08:56:50;;;;;;;29.75;16.27;;;14.10;54.70;;;;;;5073295;28;20384;-64
2022/03/23 08:59:16;;;;;;;27.17;17.70;;;14.20;54.40;;;;;;5056152;28;20029;-64
2022/03/23 09:01:42;;;;;;;31.67;17.27;;;;;;;;;;5056212;28;20031;-64
2022/03/23 09:04:08;;;;;;;25.73;15.57;;;14.50;54.90;;;;;;5056293;28;20028;-64
2022/03/23 09:06:34;;;;;;;27.10;15.85;;;14.60;53.00;;;;;;5074094;28;20025;-64
2022/03/23 09:09:00;;;;;;;43.05;16.88;;;14.70;51.60;;;;;;5074044;28;20017;-65
2022/03/23 09:11:26;;;;;;;30.90;15.32;;;14.70;54.60;;;;;;5055964;28;20115;-65
2022/03/23 09:13:52;;;;;;;40.03;18.92;;;14.90;54.10;;;;;;5074317;28;20032;-64
2022/03/23 09:16:18;;;;;;;36.97;18.83;;;15.20;55.10;;;;;;5073926;28;20052;-64
2022/03/23 09:18:43;;;;;;;38.42;19.05;;;15.30;54.90;;;;;;5080855;28;20028;-64
2022/03/23 09:21:09;;;;;;;30.38;17.60;;;15.30;53.40;;;;;;5094046;28;20028;-68
2022/03/23 09:23:36;;;;;;;33.50;18.70;;;15.30;53.10;;;;;;5075963;28;20031;-66
2022/03/23 09:26:04;;;;;;;32.67;18.02;;;15.40;52.20;;;;;;5093844;28;20040;-65
2022/03/23 09:28:30;;;;;;;29.85;18.05;;;;;;;;;;5059153;28;20431;-64
2022/03/23 09:30:56;;;;;;;25.40;16.38;;;15.30;51.20;;;;;;5073457;28;20463;-65
2022/03/23 09:33:22;;;;;;;34.17;17.83;;;15.80;64.50;;;;;;5073645;28;20055;-65
2022/03/23 09:35:48;;;;;;;30.98;17.15;;;16.00;61.40;;;;;;5073521;28;20028;-67
2022/03/23 09:38:14;;;;;;;32.38;17.65;;;16.20;56.50;;;;;;5073640;28;20021;-66
2022/03/23 09:40:40;;;;;;;35.03;19.55;;;16.30;51.40;;;;;;5055303;28;20590;-66
2022/03/23 09:43:08;;;;;;;27.38;18.90;;;16.20;51.00;;;;;;5026123;28;1345603;-67
2022/03/23 09:48:03;;;;;;;28.67;16.27;;;16.50;52.00;;;;;;5074087;28;20105;-67
2022/03/23 09:50:31;;;;;;;27.80;18.42;;;16.50;55.50;;;;;;5074123;28;20025;-70
2022/03/23 09:52:57;;;;;;;27.75;17.58;;;16.70;57.80;;;;;;5074546;28;20039;-66
2022/03/23 09:55:24;;;;;;;29.73;17.58;;;16.80;51.20;;;;;;5074133;28;20059;-68
2022/03/23 09:57:55;;;;;;;28.42;17.52;;;16.90;51.20;;;;;;5056278;28;20040;-68
2022/03/23 10:00:21;;;;;;;30.67;17.85;;;16.90;49.50;;;;;;5074148;28;20024;-69
2022/03/23 10:03:15;;;;;;;35.72;19.23;;;17.30;51.20;;;;;;5073646;28;20095;-69
2022/03/23 10:06:19;;;;;;;31.73;17.83;;;17.60;50.10;;;;;;5074026;28;20035;-67
2022/03/23 10:09:23;;;;;;;33.58;18.50;;;17.70;50.40;;;;;;5055899;28;20035;-67
2022/03/23 10:12:11;;;;;;;27.55;17.42;;;17.80;51.50;;;;;;5073900;28;20480;-65
2022/03/23 10:15:15;;;;;;;31.10;19.45;;;18.10;51.20;;;;;;5055998;28;20055;-67
2022/03/23 10:18:23;;;;;;;30.35;18.90;;;18.20;49.40;;;;;;5073995;28;20036;-67
2022/03/23 10:20:48;;;;;;;30.98;18.08;;;18.50;49.30;;;;;;5034857;28;20044;-65
2022/03/23 10:23:20;;;;;;;37.83;19.20;;;18.10;47.60;;;;;;5073557;28;20165;-67
2022/03/23 10:25:46;;;;;;;37.90;18.90;;;18.20;48.10;;;;;;5073427;28;20037;-69
2022/03/23 10:28:16;;;;;;;24.98;17.27;;;;;;;;;;5055640;28;20032;-67
2022/03/23 10:30:43;;;;;;;31.10;18.13;;;;;;;;;;5073290;28;20029;-66
2022/03/23 10:33:24;;;;;;;36.67;18.98;;;;;;;;;;5072570;28;20126;-66
2022/03/23 10:35:51;;;;;;;32.75;19.40;;;;;;;;;;5072188;28;20024;-67
2022/03/23 10:38:22;;;;;;;34.55;20.05;;;18.60;49.50;;;;;;5070573;28;20090;-66
2022/03/23 10:40:51;;;;;;;30.25;18.30;;;21.40;45.30;;;;;;5072786;28;20105;-65
2022/03/23 10:43:20;;;;;;;33.40;19.52;;;21.60;45.20;;;;;;5072488;28;20048;-65
2022/03/23 10:45:47;;;;;;;36.42;20.40;;;21.80;44.60;;;;;;5073099;28;20101;-66
2022/03/23 10:48:18;;;;;;;45.63;21.02;;;22.50;43.80;;;;;;5073427;28;20039;-65
2022/03/23 10:50:52;;;;;;;31.45;19.73;;;22.80;43.40;;;;;;5072890;28;20388;-68
2022/03/23 10:53:39;;;;;;;31.85;19.92;;;23.10;42.50;;;;;;5072849;28;20041;-66
2022/03/23 10:56:06;;;;;;;32.15;18.70;;;23.50;42.60;;;;;;5073034;28;20025;-66
2022/03/23 10:58:34;;;;;;;36.92;18.17;;;23.90;40.50;;;;;;5073060;28;20060;-66
2022/03/23 11:01:06;;;;;;;26.80;18.65;;;25.40;39.90;;;;;;5072978;28;20029;-67
2022/03/23 11:03:48;;;;;;;29.63;17.58;;;25.30;39.30;;;;;;5054182;28;20139;-66
2022/03/23 11:06:17;;;;;;;32.42;17.35;;;25.20;38.90;;;;;;5072719;28;20086;-66
2022/03/23 11:08:46;;;;;;;32.70;19.70;;;;;;;;;;5072908;28;20056;-65
2022/03/23 11:16:37;;;;;;;36.08;18.40;;;28.30;38.40;;;;;;5071768;28;20124;-66
2022/03/23 11:19:14;;;;;;;31.30;18.40;;;29.00;37.10;;;;;;5072874;28;20024;-66
2022/03/23 11:22:01;;;;;;;27.92;17.58;;;29.60;37.60;;;;;;5054032;28;20572;-66
2022/03/23 11:24:38;;;;;;;29.70;18.77;;;29.80;35.70;;;;;;5071935;28;20489;-68
2022/03/23 11:27:11;;;;;;;32.80;18.73;;;30.20;35.10;;;;;;5052891;28;20028;-67
2022/03/23 11:29:39;;;;;;;33.67;18.98;;;30.50;35.20;;;;;;5071539;28;20029;-67
2022/03/23 11:32:11;;;;;;;26.23;17.77;;;31.00;34.40;;;;;;5071136;28;20021;-66
2022/03/23 11:34:38;;;;;;;30.85;17.58;;;31.30;34.20;;;;;;5072521;28;20491;-65
2022/03/23 11:37:07;;;;;;;27.20;16.60;;;31.10;32.80;;;;;;5072546;28;20116;-66
2022/03/23 11:39:34;;;;;;;22.08;15.75;;;31.30;33.10;;;;;;5072557;28;20137;-65
2022/03/23 11:42:03;;;;;;;27.65;14.88;;;30.90;33.00;;;;;;5072361;28;20035;-65
2022/03/23 11:44:29;;;;;;;33.25;16.58;;;30.70;33.30;;;;;;5072420;28;20437;-66
2022/03/23 11:47:02;;;;;;;25.00;14.60;;;30.30;34.10;;;;;;5072475;28;20479;-66
2022/03/23 11:49:48;;;;;;;30.10;16.45;;;30.80;33.30;;;;;;5052295;28;20032;-65
2022/03/23 11:52:41;;;;;;;24.80;16.02;;;31.50;34.30;;;;;;5072281;28;20074;-66
2022/03/23 11:55:40;;;;;;;31.48;15.82;;;32.20;32.80;;;;;;5072591;28;20033;-66
2022/03/23 11:58:21;;;;;;;25.63;15.10;;;33.30;32.70;;;;;;5072262;28;20050;-66
2022/03/23 12:00:52;;;;;;;25.88;15.02;;;33.10;31.90;;;;;;5072563;28;20524;-65
2022/03/23 12:03:36;;;;;;;;;;;32.80;32.40;;;;;;5072565;28;20029;-65
2022/03/23 12:06:10;;;;;;;20.95;12.45;;;32.90;32.50;;;;;;5054235;28;20391;-65
2022/03/23 12:08:57;;;;;;;25.73;12.95;;;32.80;31.90;;;;;;5072482;28;20032;-65
2022/03/23 12:11:44;;;;;;;25.27;15.68;;;33.00;31.00;;;;;;5072504;28;20028;-65
2022/03/23 12:14:25;;;;;;;24.83;10.77;;;33.70;31.60;;;;;;5054256;28;20127;-64
2022/03/23 12:16:51;;;;;;;18.27;9.73;;;34.30;31.00;;;;;;5072017;28;20358;-66
2022/03/23 12:19:25;;;;;;;23.58;10.27;;;34.40;29.90;;;;;;5053929;28;20128;-66
2022/03/23 12:22:14;;;;;;;23.05;10.60;;;34.90;30.00;;;;;;5072333;28;20021;-66
2022/03/23 12:24:50;;;;;;;20.23;12.63;;;34.90;29.50;;;;;;5072239;28;20047;-65
2022/03/23 12:27:41;;;;;;;17.27;9.23;;;35.60;30.20;;;;;;5073610;28;20432;-65
2022/03/23 12:30:15;;;;;;;23.98;10.60;;;35.20;29.40;;;;;;5076029;28;20028;-65
2022/03/23 12:32:42;;;;;;;16.98;9.20;;;35.00;30.50;;;;;;5057806;28;20033;-65
2022/03/23 12:35:08;;;;;;;20.35;9.48;;;34.10;30.00;;;;;;5075455;28;20412;-65
2022/03/23 12:37:39;;;;;;;22.70;10.02;;;32.80;30.70;;;;;;5076023;28;20029;-65
2022/03/23 12:40:13;;;;;;;23.33;10.32;;;32.40;30.20;;;;;;5075751;28;20030;-65
2022/03/23 12:42:45;;;;;;;22.60;10.85;;;31.70;31.60;;;;;;5072799;28;20024;-65
2022/03/23 12:45:16;;;;;;;17.25;10.07;;;31.90;31.10;;;;;;5075282;28;20036;-66
2022/03/23 12:48:05;;;;;;;19.05;10.40;;;32.80;30.60;;;;;;5075897;28;20028;-67
2022/03/23 12:59:22;;;;;;;17.92;10.80;;;33.50;30.90;;;;;;5075089;28;20035;-65
2022/03/23 13:01:55;;;;;;;23.23;11.43;;;33.40;30.60;;;;;;5057282;28;20055;-65
2022/03/23 13:04:35;;;;;;;24.25;12.02;;;33.50;30.00;;;;;;5075121;28;20032;-65
2022/03/23 13:07:29;;;;;;;24.63;11.35;;;34.20;30.30;;;;;;5075138;28;20028;-66
2022/03/23 13:10:05;;;;;;;19.00;10.07;;;35.10;30.00;;;;;;5075207;28;20067;-64
2022/03/23 13:12:31;;;;;;;20.75;10.93;;;35.90;29.60;;;;;;5074779;28;20020;-63
2022/03/23 13:15:08;;;;;;;20.83;10.15;;;36.60;29.90;;;;;;5074643;28;20047;-63
2022/03/23 13:17:34;;;;;;;26.65;11.32;;;36.50;29.40;;;;;;5056718;28;20420;-63
2022/03/23 13:20:02;;;;;;;23.73;11.43;;;36.60;29.70;;;;;;5074438;28;20028;-63
2022/03/23 13:22:46;;;;;;;30.42;9.68;;;35.70;29.20;;;;;;5074671;28;20055;-63
2022/03/23 13:25:17;;;;;;;18.40;9.07;;;35.90;29.90;;;;;;5074559;28;20504;-63
2022/03/23 13:27:43;;;;;;;20.30;10.25;;;36.40;29.40;;;;;;5074572;28;20342;-64
2022/03/23 13:30:13;;;;;;;20.63;9.88;;;36.20;29.10;;;;;;5075004;28;20078;-64
2022/03/23 13:32:41;;;;;;;19.17;8.98;;;36.40;29.50;;;;;;5074310;28;20059;-63
2022/03/23 13:35:11;;;;;;;15.20;8.57;;;36.90;29.10;;;;;;5074308;28;20534;-63
2022/03/23 13:37:57;;;;;;;13.15;9.43;;;37.70;29.40;;;;;;5074175;28;20528;-64
2022/03/23 13:43:19;;;;;;;21.38;10.00;;;37.90;28.80;;;;;;5073085;28;20055;-64
2022/03/23 13:45:54;;;;;;;14.25;8.38;;;37.70;29.10;;;;;;5056171;28;20032;-64
2022/03/23 13:48:20;;;;;;;20.80;9.30;;;37.60;29.00;;;;;;5074401;28;20350;-65
2022/03/23 13:50:48;;;;;;;16.52;9.25;;;37.60;29.50;;;;;;5074253;28;20052;-66
2022/03/23 13:53:17;;;;;;;22.23;9.40;;;37.60;29.10;;;;;;5074083;28;20111;-69
2022/03/23 13:55:47;;;;;;;15.05;9.35;;;36.50;28.70;;;;;;5056082;28;20059;-65
2022/03/23 13:58:16;;;;;;;20.40;9.47;;;37.10;29.10;;;;;;5074170;28;20029;-65
2022/03/23 14:00:44;;;;;;;18.83;9.50;;;37.10;29.60;;;;;;5074047;28;20032;-65
2022/03/23 14:03:11;;;;;;;17.80;9.23;;;36.80;28.80;;;;;;5055856;28;20047;-64
2022/03/23 14:05:37;;;;;;;15.27;9.43;;;37.50;29.60;;;;;;5073963;28;20067;-65
2022/03/23 14:08:05;;;;;;;16.65;8.82;;;37.50;28.70;;;;;;5073755;28;20056;-65
2022/03/23 14:10:34;;;;;;;16.17;9.43;;;36.60;29.20;;;;;;5074163;28;20473;-65
2022/03/23 14:13:03;;;;;;;14.77;9.57;;;36.50;29.70;;;;;;5073670;28;20031;-65
2022/03/23 14:15:36;;;;;;;26.70;13.05;;;35.80;29.40;;;;;;5073673;28;20033;-65
2022/03/23 14:18:03;;;;;;;17.35;10.40;;;35.60;29.40;;;;;;5073555;28;20020;-65